Time;durP1;ratioP1;P1;durP2;ratioP2;P2;SDS_P1;SDS_P2;PMS_P1;PMS_P2;Temp;Humidity;BMP_temperature;BMP_pressure;BME280_temperature;BME280_humidity;BME280_pressure;Samples;Min_cycle;Max_cycle;Signal;HPM_P1;HPM_P2
2022/11/09 00:00:35;;;;;;;10.70;8.80;;;10.20;99.90;;;;;;4980885;28;21216;-86
2022/11/09 00:03:03;;;;;;;12.90;9.33;;;10.30;99.90;;;;;;4978202;28;20644;-86
2022/11/09 00:05:30;;;;;;;10.70;9.50;;;10.10;99.90;;;;;;4979607;28;20621;-85
2022/11/09 00:07:57;;;;;;;8.60;7.90;;;10.00;99.90;;;;;;4983419;28;20679;-85
2022/11/09 00:10:23;;;;;;;8.80;7.90;;;10.00;99.90;;;;;;4978268;28;21209;-84
2022/11/09 00:12:50;;;;;;;8.70;7.80;;;10.40;99.90;;;;;;4981645;28;20628;-84
2022/11/09 00:15:17;;;;;;;9.70;8.90;;;10.40;99.90;;;;;;4982467;28;20629;-84
2022/11/09 00:17:44;;;;;;;9.47;8.40;;;10.40;99.90;;;;;;4983535;28;21028;-84
2022/11/09 00:20:13;;;;;;;9.30;8.40;;;10.50;99.90;;;;;;4980759;28;20643;-83
2022/11/09 00:22:39;;;;;;;9.20;7.87;;;10.40;99.90;;;;;;4981704;28;21021;-84
2022/11/09 00:25:07;;;;;;;8.57;7.63;;;10.40;99.90;;;;;;4982740;28;20651;-84
2022/11/09 00:27:34;;;;;;;8.87;7.70;;;10.40;99.90;;;;;;4981265;28;20657;-84
2022/11/09 00:30:01;;;;;;;11.10;7.03;;;10.50;99.90;;;;;;4984880;28;20985;-85
2022/11/09 00:32:28;;;;;;;7.53;6.80;;;10.30;99.90;;;;;;4982708;28;20629;-85
2022/11/09 00:34:54;;;;;;;7.27;6.57;;;10.40;99.90;;;;;;4983787;28;20683;-84
2022/11/09 00:37:22;;;;;;;6.83;6.20;;;10.20;99.90;;;;;;4981177;28;20667;-85
2022/11/09 00:39:49;;;;;;;9.20;6.90;;;10.40;99.90;;;;;;4985798;28;20637;-85
2022/11/09 00:42:16;;;;;;;7.43;6.73;;;9.80;99.90;;;;;;4983526;28;20696;-84
2022/11/09 00:44:42;;;;;;;7.93;7.03;;;10.00;99.90;;;;;;4983363;28;21020;-84
2022/11/09 00:47:09;;;;;;;8.83;6.10;;;10.40;99.90;;;;;;4982742;28;20656;-85
2022/11/09 00:49:36;;;;;;;7.63;6.33;;;10.20;99.90;;;;;;4979602;28;20649;-84
2022/11/09 00:52:03;;;;;;;7.33;6.13;;;10.50;99.90;;;;;;4987319;28;20744;-84
2022/11/09 00:54:31;;;;;;;8.57;6.63;;;10.40;99.90;;;;;;4985938;28;20629;-84
2022/11/09 00:56:57;;;;;;;7.30;6.60;;;10.30;99.90;;;;;;4997647;28;20631;-84
2022/11/09 00:59:24;;;;;;;9.13;6.73;;;10.70;99.90;;;;;;4988502;28;21312;-84
2022/11/09 01:01:51;;;;;;;6.37;5.77;;;10.50;99.90;;;;;;4987050;28;20704;-84
2022/11/09 01:04:18;;;;;;;9.73;6.03;;;10.40;99.90;;;;;;4980651;28;20637;-85
2022/11/09 01:06:44;;;;;;;6.73;6.13;;;10.50;99.90;;;;;;4980758;28;20649;-85
2022/11/09 01:09:11;;;;;;;7.93;7.23;;;10.40;99.90;;;;;;4996830;28;20632;-84
2022/11/09 01:11:39;;;;;;;6.87;6.27;;;10.60;99.90;;;;;;4983107;28;20625;-83
2022/11/09 01:14:06;;;;;;;11.93;8.80;;;10.40;99.90;;;;;;4984482;28;20625;-84
2022/11/09 01:16:33;;;;;;;10.70;7.73;;;10.50;99.90;;;;;;4983910;28;21001;-84
2022/11/09 01:19:00;;;;;;;10.13;9.23;;;10.10;99.90;;;;;;4984358;28;20660;-84
2022/11/09 01:21:29;;;;;;;10.10;8.73;;;10.40;99.90;;;;;;4981889;28;20664;-84
2022/11/09 01:23:57;;;;;;;20.53;16.80;;;10.70;99.90;;;;;;4982235;28;20853;-84
2022/11/09 01:26:24;;;;;;;32.93;23.90;;;10.40;99.90;;;;;;4993245;28;20640;-84
2022/11/09 01:28:52;;;;;;;25.60;18.93;;;10.50;99.90;;;;;;4984467;28;20652;-84
2022/11/09 01:31:20;;;;;;;15.00;11.87;;;9.90;99.90;;;;;;4981445;28;20648;-84
2022/11/09 01:33:47;;;;;;;10.00;8.80;;;10.30;99.90;;;;;;4980852;28;20628;-84
2022/11/09 01:36:16;;;;;;;8.03;7.33;;;10.30;99.90;;;;;;4973053;28;20640;-84
2022/11/09 01:38:43;;;;;;;8.63;7.90;;;10.30;99.90;;;;;;4981841;28;20660;-83
2022/11/09 01:41:13;;;;;;;8.43;7.63;;;10.30;99.90;;;;;;4986086;28;20639;-84
2022/11/09 01:43:40;;;;;;;11.10;8.30;;;10.50;99.90;;;;;;4984136;28;20632;-84
2022/11/09 01:46:14;;;;;;;17.00;15.20;;;10.20;99.90;;;;;;4981572;28;21386;-84
2022/11/09 01:48:46;;;;;;;56.40;47.70;;;10.30;99.90;;;;;;4983253;28;20668;-84
2022/11/09 01:51:18;;;;;;;50.20;42.97;;;10.20;99.90;;;;;;4980448;28;20647;-84
2022/11/09 01:53:49;;;;;;;25.93;22.30;;;10.30;99.90;;;;;;4977592;28;20629;-84
2022/11/09 01:56:16;;;;;;;14.33;12.83;;;10.50;99.90;;;;;;4984682;28;20999;-84
2022/11/09 01:58:49;;;;;;;13.40;12.10;;;10.20;99.90;;;;;;4984037;28;20645;-84
2022/11/09 02:01:18;;;;;;;35.40;28.90;;;10.30;99.90;;;;;;4982165;28;20616;-85
2022/11/09 02:03:50;;;;;;;118.17;98.73;;;10.20;99.90;;;;;;4977455;28;20633;-84
2022/11/09 02:06:20;;;;;;;43.43;38.73;;;10.10;99.90;;;;;;4984251;28;20675;-84
2022/11/09 02:08:48;;;;;;;13.17;11.70;;;10.30;99.90;;;;;;4979319;28;20652;-85
2022/11/09 02:11:17;;;;;;;8.70;7.90;;;10.30;99.90;;;;;;4990633;28;20631;-84
2022/11/09 02:13:51;;;;;;;12.80;11.50;;;10.40;99.90;;;;;;4989154;28;20640;-85
2022/11/09 02:16:19;;;;;;;9.67;8.13;;;10.30;99.90;;;;;;4981006;28;20632;-84
2022/11/09 02:18:51;;;;;;;17.60;15.73;;;10.40;99.90;;;;;;4987775;28;20654;-84
2022/11/09 02:21:20;;;;;;;36.77;29.40;;;9.80;99.90;;;;;;4985603;28;20636;-85
2022/11/09 02:23:47;;;;;;;12.67;10.50;;;10.50;99.90;;;;;;4983022;28;20635;-84
2022/11/09 02:26:16;;;;;;;8.33;7.53;;;10.40;99.90;;;;;;4989813;28;20644;-84
2022/11/09 02:28:43;;;;;;;9.07;7.60;;;10.20;99.90;;;;;;4980166;28;21240;-84
2022/11/09 02:31:13;;;;;;;23.40;18.37;;;10.40;99.90;;;;;;4986401;28;20623;-84
2022/11/09 02:33:44;;;;;;;54.17;38.23;;;10.30;99.90;;;;;;4984618;28;20636;-84
2022/11/09 02:36:10;;;;;;;29.53;23.23;;;10.50;99.90;;;;;;4979051;28;20712;-84
2022/11/09 02:38:38;;;;;;;14.10;11.47;;;10.60;99.90;;;;;;4981334;28;20661;-84
2022/11/09 02:41:06;;;;;;;11.73;10.23;;;10.50;99.90;;;;;;4981530;28;20629;-84
2022/11/09 02:43:33;;;;;;;9.30;7.27;;;10.40;99.90;;;;;;4990498;28;20668;-84
2022/11/09 02:46:00;;;;;;;7.07;6.33;;;10.50;99.90;;;;;;4982801;28;20630;-84
2022/11/09 02:48:27;;;;;;;6.87;6.30;;;10.70;99.90;;;;;;4982639;28;20657;-84
2022/11/09 02:50:54;;;;;;;8.63;7.77;;;10.30;99.90;;;;;;4980291;28;20632;-84
2022/11/09 02:53:20;;;;;;;12.40;11.10;;;10.40;99.90;;;;;;4979493;28;20633;-84
2022/11/09 02:55:48;;;;;;;12.17;10.40;;;10.60;99.90;;;;;;4980739;28;20655;-84
2022/11/09 02:58:15;;;;;;;13.13;9.30;;;10.80;99.90;;;;;;4980244;28;20660;-84
2022/11/09 03:00:42;;;;;;;24.40;14.57;;;10.80;99.90;;;;;;4983652;28;20630;-84
2022/11/09 03:03:09;;;;;;;15.90;14.10;;;10.80;99.90;;;;;;4981591;28;20664;-86
2022/11/09 03:05:36;;;;;;;20.77;15.00;;;11.00;99.90;;;;;;4983296;28;20632;-86
2022/11/09 03:08:03;;;;;;;19.90;17.57;;;11.10;99.90;;;;;;4984353;28;20667;-86
2022/11/09 03:10:30;;;;;;;22.00;18.30;;;11.10;99.90;;;;;;4986119;28;20645;-86
2022/11/09 03:12:58;;;;;;;22.43;19.57;;;10.90;99.90;;;;;;4991792;28;20640;-86
2022/11/09 03:15:25;;;;;;;15.37;13.13;;;10.90;99.90;;;;;;4992264;28;20641;-85
2022/11/09 03:17:52;;;;;;;11.30;9.90;;;11.00;99.90;;;;;;4989708;28;20655;-84
2022/11/09 03:20:18;;;;;;;16.10;13.80;;;10.70;99.90;;;;;;4986300;28;20633;-85
2022/11/09 03:22:45;;;;;;;21.73;19.40;;;11.10;99.90;;;;;;4991778;28;20676;-85
2022/11/09 03:25:12;;;;;;;19.33;17.30;;;11.20;99.90;;;;;;4987868;28;21222;-85
2022/11/09 03:27:39;;;;;;;19.03;16.13;;;11.20;99.90;;;;;;4990469;28;20665;-85
2022/11/09 03:30:09;;;;;;;26.80;19.90;;;11.10;99.90;;;;;;4991346;28;20640;-85
2022/11/09 03:32:35;;;;;;;23.47;18.23;;;11.10;99.90;;;;;;4983583;28;20630;-84
2022/11/09 03:35:02;;;;;;;28.70;20.20;;;11.10;99.90;;;;;;4981731;28;20636;-85
2022/11/09 03:37:29;;;;;;;55.10;40.80;;;11.20;99.90;;;;;;4977394;28;20657;-85
2022/11/09 03:39:56;;;;;;;32.13;25.43;;;11.40;99.90;;;;;;4979906;28;20810;-85
2022/11/09 03:42:22;;;;;;;14.20;10.73;;;11.00;99.90;;;;;;4979209;28;20681;-86
2022/11/09 03:44:49;;;;;;;11.13;9.00;;;11.30;99.90;;;;;;4982285;28;20993;-86
2022/11/09 03:47:18;;;;;;;7.80;7.10;;;11.50;99.90;;;;;;4982295;28;20970;-86
2022/11/09 03:49:45;;;;;;;8.73;7.83;;;11.50;99.90;;;;;;4981544;28;20629;-87
2022/11/09 03:52:12;;;;;;;14.40;8.73;;;11.00;99.90;;;;;;4979117;28;21243;-87
2022/11/09 03:54:38;;;;;;;8.80;8.07;;;11.30;99.90;;;;;;4973698;28;20640;-86
2022/11/09 03:57:05;;;;;;;9.73;8.83;;;11.20;99.90;;;;;;4981193;28;21173;-87
2022/11/09 03:59:32;;;;;;;8.93;8.17;;;10.90;99.90;;;;;;4985578;28;20635;-87
2022/11/09 04:01:59;;;;;;;17.17;12.37;;;11.20;99.90;;;;;;4984509;28;20655;-86
2022/11/09 04:04:27;;;;;;;11.37;10.27;;;11.20;99.90;;;;;;4980055;28;20645;-86
2022/11/09 04:06:53;;;;;;;9.40;8.50;;;11.10;99.90;;;;;;4980803;28;20641;-89
2022/11/09 04:09:20;;;;;;;16.33;14.87;;;10.90;99.90;;;;;;4981497;28;20637;-88
2022/11/09 04:11:47;;;;;;;12.80;11.50;;;10.80;99.90;;;;;;4984297;28;20663;-87
2022/11/09 04:14:13;;;;;;;11.10;10.10;;;11.00;99.90;;;;;;4987289;28;20997;-88
2022/11/09 04:16:42;;;;;;;10.83;9.73;;;11.00;99.90;;;;;;4981745;28;20733;-89
2022/11/09 04:19:08;;;;;;;12.50;11.37;;;11.20;99.90;;;;;;4983756;28;20981;-88
2022/11/09 04:21:36;;;;;;;9.33;8.53;;;10.80;99.90;;;;;;4982127;28;20664;-88
2022/11/09 04:24:03;;;;;;;8.53;7.73;;;11.00;99.90;;;;;;4980452;28;21210;-89
2022/11/09 04:26:30;;;;;;;8.60;7.80;;;11.10;99.90;;;;;;4981570;28;20656;-88
2022/11/09 04:28:57;;;;;;;9.40;8.47;;;11.00;99.90;;;;;;4983076;28;20634;-88
2022/11/09 04:31:24;;;;;;;9.40;8.20;;;10.60;99.90;;;;;;4984143;28;20660;-89
2022/11/09 04:33:51;;;;;;;12.53;10.40;;;10.60;99.90;;;;;;4985187;28;20629;-89
2022/11/09 04:36:18;;;;;;;9.80;8.80;;;11.00;99.90;;;;;;4979939;28;20630;-89
2022/11/09 04:38:46;;;;;;;8.57;7.77;;;10.70;99.90;;;;;;4986102;28;21245;-88
2022/11/09 04:41:13;;;;;;;9.40;8.60;;;10.80;99.90;;;;;;4977453;28;20629;-89
2022/11/09 04:43:41;;;;;;;8.77;8.00;;;10.60;99.90;;;;;;4981913;28;20668;-88
2022/11/09 04:46:08;;;;;;;10.77;9.77;;;10.50;99.90;;;;;;4984392;28;20621;-89
2022/11/09 04:48:35;;;;;;;9.77;8.97;;;10.70;99.90;;;;;;4990280;28;20653;-89
2022/11/09 04:51:03;;;;;;;9.83;8.87;;;10.50;99.90;;;;;;4991195;28;21405;-88
2022/11/09 04:53:30;;;;;;;10.80;9.70;;;10.50;99.90;;;;;;4980610;28;20620;-88
2022/11/09 04:55:58;;;;;;;9.43;8.43;;;10.70;99.90;;;;;;4981992;28;20638;-88
2022/11/09 04:58:26;;;;;;;11.33;9.40;;;10.80;99.90;;;;;;4980858;28;20654;-88
2022/11/09 05:00:54;;;;;;;10.27;9.10;;;10.30;99.90;;;;;;4985199;28;20628;-88
2022/11/09 05:03:21;;;;;;;10.13;9.10;;;10.70;99.90;;;;;;4981119;28;20652;-89
2022/11/09 05:05:48;;;;;;;10.13;9.13;;;10.70;99.90;;;;;;4983399;28;20652;-88
2022/11/09 05:08:14;;;;;;;9.90;8.93;;;10.80;99.90;;;;;;4977871;28;20645;-88
2022/11/09 05:10:42;;;;;;;10.70;9.80;;;10.60;99.90;;;;;;4981032;28;20651;-88
2022/11/09 05:13:12;;;;;;;8.40;7.70;;;10.40;99.90;;;;;;4986235;28;20617;-89
2022/11/09 05:15:39;;;;;;;10.13;9.20;;;10.70;99.90;;;;;;4980040;28;20649;-89
2022/11/09 05:18:07;;;;;;;10.63;9.37;;;10.50;99.90;;;;;;4983605;28;20656;-89
2022/11/09 05:20:35;;;;;;;9.50;8.70;;;10.20;99.90;;;;;;4983922;28;20633;-89
2022/11/09 05:25:48;;;;;;;8.87;8.07;;;10.50;99.90;;;;;;4981310;28;21056;-89
2022/11/09 05:28:17;;;;;;;10.60;8.97;;;10.70;99.90;;;;;;4978858;28;20628;-89
2022/11/09 05:30:44;;;;;;;10.27;9.40;;;10.60;99.90;;;;;;4984088;28;20647;-89
2022/11/09 05:33:11;;;;;;;8.90;8.10;;;10.80;99.90;;;;;;4982315;28;20660;-89
2022/11/09 05:35:38;;;;;;;9.17;8.30;;;10.30;99.90;;;;;;4981817;28;20641;-88
2022/11/09 05:38:05;;;;;;;8.50;7.80;;;10.70;99.90;;;;;;4980304;28;20639;-89
2022/11/09 05:40:32;;;;;;;20.13;17.87;;;10.40;99.90;;;;;;4979372;28;21021;-89
2022/11/09 05:42:59;;;;;;;32.37;28.97;;;10.90;99.90;;;;;;4983466;28;20757;-89
2022/11/09 05:45:27;;;;;;;20.77;18.67;;;10.50;99.90;;;;;;4977583;28;20629;-89
2022/11/09 05:47:54;;;;;;;15.77;14.07;;;11.10;99.90;;;;;;4964596;28;20641;-88
2022/11/09 05:50:21;;;;;;;11.10;9.60;;;10.90;99.90;;;;;;4980645;28;20653;-88
2022/11/09 05:52:48;;;;;;;11.17;9.57;;;10.80;99.90;;;;;;4982936;28;20613;-89
2022/11/09 05:55:15;;;;;;;9.50;8.50;;;10.70;99.90;;;;;;4981028;28;20996;-88
2022/11/09 05:57:42;;;;;;;8.03;7.33;;;10.80;99.90;;;;;;4981027;28;20648;-89
2022/11/09 06:00:09;;;;;;;7.40;6.60;;;10.90;99.90;;;;;;4981101;28;20633;-89
2022/11/09 06:02:38;;;;;;;7.30;6.80;;;10.80;99.90;;;;;;4979473;28;20665;-88
2022/11/09 06:05:05;;;;;;;8.10;7.33;;;10.30;99.90;;;;;;4985651;28;20632;-87
2022/11/09 06:07:32;;;;;;;7.57;6.87;;;10.70;99.90;;;;;;4973836;28;21180;-88
2022/11/09 06:09:59;;;;;;;10.00;9.17;;;10.70;99.90;;;;;;4981510;28;20632;-88
2022/11/09 06:12:26;;;;;;;7.87;7.13;;;10.90;99.90;;;;;;4980880;28;20661;-88
2022/11/09 06:14:53;;;;;;;8.90;8.20;;;10.70;99.90;;;;;;4982451;28;20748;-87
2022/11/09 06:17:19;;;;;;;9.03;8.27;;;10.30;99.90;;;;;;4981629;28;20624;-87
2022/11/09 06:19:48;;;;;;;10.10;9.13;;;10.60;99.90;;;;;;4977926;28;21158;-88
2022/11/09 06:22:14;;;;;;;8.03;7.33;;;10.70;99.90;;;;;;4980836;28;20624;-86
2022/11/09 06:24:41;;;;;;;8.70;7.97;;;10.30;99.90;;;;;;4977874;28;20691;-87
2022/11/09 06:27:08;;;;;;;8.37;7.67;;;10.60;99.90;;;;;;4981668;28;20632;-91
2022/11/09 06:29:35;;;;;;;8.40;7.60;;;10.70;99.90;;;;;;4992352;28;20609;-87
2022/11/09 06:32:02;;;;;;;8.63;7.80;;;10.80;99.90;;;;;;4988485;28;20676;-87
2022/11/09 06:34:29;;;;;;;9.80;7.57;;;10.80;99.90;;;;;;4987701;28;20680;-87
2022/11/09 06:36:57;;;;;;;8.30;7.60;;;10.60;99.90;;;;;;4980984;28;20669;-87
2022/11/09 06:39:24;;;;;;;9.40;8.47;;;10.60;99.90;;;;;;4977598;28;20633;-87
2022/11/09 06:41:51;;;;;;;9.10;8.20;;;10.40;99.90;;;;;;4983096;28;20640;-87
2022/11/09 06:44:18;;;;;;;11.40;8.20;;;10.80;99.90;;;;;;4980991;28;20689;-87
2022/11/09 06:46:45;;;;;;;8.50;7.70;;;10.80;99.90;;;;;;4981671;28;20635;-87
2022/11/09 06:49:12;;;;;;;8.10;7.40;;;10.80;99.90;;;;;;4977911;28;20633;-87
2022/11/09 06:51:39;;;;;;;8.07;7.27;;;10.70;99.90;;;;;;4974983;28;20976;-87
2022/11/09 06:54:07;;;;;;;7.17;6.57;;;10.60;99.90;;;;;;4978387;28;21580;-87
2022/11/09 06:56:33;;;;;;;7.23;6.67;;;10.30;99.90;;;;;;4981218;28;20633;-87
2022/11/09 06:59:00;;;;;;;7.83;7.10;;;10.70;99.90;;;;;;4980001;28;20656;-87
2022/11/09 07:01:28;;;;;;;7.57;6.87;;;10.30;99.90;;;;;;4976634;28;20640;-87
2022/11/09 07:03:55;;;;;;;9.80;9.00;;;10.80;99.90;;;;;;4981199;28;20742;-88
2022/11/09 07:06:23;;;;;;;9.73;8.83;;;10.70;99.90;;;;;;4977363;28;20627;-88
2022/11/09 07:08:50;;;;;;;9.23;8.33;;;10.60;99.90;;;;;;4979834;28;20629;-88
2022/11/09 07:11:18;;;;;;;9.07;8.27;;;10.80;99.90;;;;;;4977875;28;20628;-88
2022/11/09 07:13:47;;;;;;;9.23;7.80;;;10.60;99.90;;;;;;4978943;28;20756;-88
2022/11/09 07:16:16;;;;;;;7.97;7.17;;;10.90;99.90;;;;;;4978954;28;20625;-87
2022/11/09 07:18:43;;;;;;;9.20;8.30;;;10.80;99.90;;;;;;4982684;28;21023;-88
2022/11/09 07:21:10;;;;;;;8.50;7.70;;;10.50;99.90;;;;;;4992775;28;20667;-88
2022/11/09 07:23:37;;;;;;;7.53;6.93;;;11.00;99.90;;;;;;4983109;28;21222;-88
2022/11/09 07:26:04;;;;;;;7.37;6.67;;;11.00;99.90;;;;;;4988436;28;20645;-88
2022/11/09 07:28:32;;;;;;;8.33;7.63;;;10.90;99.90;;;;;;4977450;28;20668;-87
2022/11/09 07:30:59;;;;;;;7.47;6.77;;;10.70;99.90;;;;;;4982456;28;20624;-88
2022/11/09 07:33:29;;;;;;;7.23;6.40;;;11.10;99.90;;;;;;4974780;28;20649;-88
2022/11/09 07:35:58;;;;;;;7.90;7.20;;;10.90;99.90;;;;;;4979251;28;20648;-88
2022/11/09 07:38:25;;;;;;;7.57;6.80;;;11.20;99.90;;;;;;4982811;28;20692;-88
2022/11/09 07:40:52;;;;;;;7.23;6.50;;;10.90;99.90;;;;;;4979793;28;20643;-88
2022/11/09 07:43:19;;;;;;;6.50;5.90;;;10.90;99.90;;;;;;4978825;28;20752;-89
2022/11/09 07:45:48;;;;;;;6.80;6.17;;;11.30;99.90;;;;;;4981317;28;20629;-88
2022/11/09 07:48:15;;;;;;;7.27;5.00;;;11.00;99.90;;;;;;4980679;28;20628;-88
2022/11/09 07:50:42;;;;;;;3.80;3.50;;;11.40;99.90;;;;;;4978736;28;20636;-88
2022/11/09 07:53:12;;;;;;;4.83;3.13;;;11.50;99.90;;;;;;4981539;28;20691;-88
2022/11/09 07:55:39;;;;;;;5.30;2.33;;;11.30;99.90;;;;;;4981957;28;20617;-89
2022/11/09 07:58:08;;;;;;;2.60;2.17;;;11.20;99.90;;;;;;4983351;28;20616;-88
2022/11/09 08:00:37;;;;;;;6.03;4.43;;;11.70;99.90;;;;;;4987498;28;20632;-88
2022/11/09 08:03:07;;;;;;;4.90;4.50;;;11.40;99.90;;;;;;4981990;28;21321;-88
2022/11/09 08:05:34;;;;;;;8.17;7.37;;;11.60;99.90;;;;;;4989434;28;20641;-88
2022/11/09 08:08:03;;;;;;;8.47;7.53;;;11.90;99.90;;;;;;4984152;28;20644;-88
2022/11/09 08:10:31;;;;;;;9.00;8.00;;;11.90;99.90;;;;;;4978564;28;20633;-87
2022/11/09 08:13:00;;;;;;;9.03;8.23;;;11.90;99.90;;;;;;4983963;28;20647;-87
2022/11/09 08:15:27;;;;;;;9.63;6.77;;;11.80;99.90;;;;;;4981884;28;21182;-88
2022/11/09 08:17:54;;;;;;;12.50;10.10;;;11.80;99.90;;;;;;4984922;28;20627;-88
2022/11/09 08:20:22;;;;;;;8.20;7.40;;;11.90;99.90;;;;;;4987401;28;20609;-87
2022/11/09 08:22:49;;;;;;;9.53;8.63;;;12.00;99.90;;;;;;4978390;28;20683;-88
2022/11/09 08:25:16;;;;;;;10.30;9.50;;;12.10;99.90;;;;;;4974577;28;20672;-88
2022/11/09 08:27:43;;;;;;;8.03;7.10;;;11.60;99.90;;;;;;4978247;28;20637;-88
2022/11/09 08:30:13;;;;;;;6.70;6.20;;;11.60;99.90;;;;;;4979363;28;20639;-88
2022/11/09 08:32:40;;;;;;;6.63;6.03;;;11.80;99.90;;;;;;4973946;28;20664;-88
2022/11/09 08:35:09;;;;;;;7.63;5.00;;;11.70;99.90;;;;;;4978980;28;21258;-87
2022/11/09 08:37:38;;;;;;;18.60;5.40;;;12.40;99.90;;;;;;4977263;28;20629;-88
2022/11/09 08:40:06;;;;;;;9.73;4.90;;;12.00;99.90;;;;;;4980548;28;21212;-88
2022/11/09 08:42:33;;;;;;;5.00;3.90;;;12.20;99.90;;;;;;4975581;28;21036;-88
2022/11/09 08:45:00;;;;;;;5.70;4.20;;;12.30;99.90;;;;;;4983848;28;20795;-87
2022/11/09 08:47:28;;;;;;;4.27;3.87;;;12.40;99.90;;;;;;4983170;28;20641;-88
2022/11/09 08:49:54;;;;;;;3.70;3.40;;;12.20;99.90;;;;;;4980821;28;20633;-88
2022/11/09 08:52:21;;;;;;;4.27;3.87;;;12.40;99.90;;;;;;4982231;28;21130;-88
2022/11/09 08:54:49;;;;;;;5.80;5.30;;;12.10;99.90;;;;;;4979132;28;20639;-89
2022/11/09 08:57:18;;;;;;;5.97;5.47;;;12.10;99.90;;;;;;4983985;28;20648;-88
2022/11/09 08:59:44;;;;;;;6.73;5.77;;;12.40;99.90;;;;;;4985926;28;20638;-88
2022/11/09 09:02:12;;;;;;;7.07;6.30;;;12.10;99.90;;;;;;4983536;28;20663;-89
2022/11/09 09:04:39;;;;;;;6.13;5.53;;;12.50;99.90;;;;;;4982128;28;21237;-88
2022/11/09 09:07:06;;;;;;;5.93;5.40;;;12.50;99.90;;;;;;4985282;28;20639;-89
2022/11/09 09:09:33;;;;;;;9.67;4.30;;;12.30;99.90;;;;;;4980035;28;21506;-88
2022/11/09 09:12:01;;;;;;;6.10;5.30;;;12.20;99.90;;;;;;4982819;28;21117;-89
2022/11/09 09:14:28;;;;;;;6.83;6.23;;;12.40;99.90;;;;;;4981681;28;20620;-89
2022/11/09 09:16:55;;;;;;;6.67;6.00;;;12.70;99.90;;;;;;4980942;28;21191;-89
2022/11/09 09:19:22;;;;;;;5.60;4.93;;;12.80;99.90;;;;;;4980871;28;20644;-89
2022/11/09 09:21:49;;;;;;;5.33;4.90;;;12.50;99.90;;;;;;4984195;28;20652;-88
2022/11/09 09:24:15;;;;;;;4.87;4.33;;;12.70;99.90;;;;;;4981856;28;20672;-89
2022/11/09 09:26:43;;;;;;;7.10;4.83;;;12.50;99.90;;;;;;4982358;28;20656;-88
2022/11/09 09:29:12;;;;;;;5.20;4.70;;;12.60;99.90;;;;;;4980277;28;20625;-88
2022/11/09 09:31:39;;;;;;;4.77;4.37;;;12.20;99.90;;;;;;4981801;28;20660;-88
2022/11/09 09:34:06;;;;;;;6.53;5.37;;;12.70;99.90;;;;;;4981770;28;20640;-88
2022/11/09 09:36:34;;;;;;;6.73;5.53;;;12.50;99.90;;;;;;4988497;28;20633;-88
2022/11/09 09:39:01;;;;;;;6.27;4.80;;;12.10;99.90;;;;;;4988658;28;21037;-88
2022/11/09 09:41:37;;;;;;;11.10;5.23;;;12.70;99.90;;;;;;4990230;28;20828;-88
2022/11/09 09:44:18;;;;;;;9.50;3.97;;;12.20;99.90;;;;;;4981992;28;20664;-88
2022/11/09 09:46:50;;;;;;;5.17;3.60;;;12.70;99.90;;;;;;4979964;28;20625;-89
2022/11/09 09:49:21;;;;;;;10.60;4.60;;;12.50;99.90;;;;;;4978675;28;20668;-90
2022/11/09 09:51:52;;;;;;;5.00;4.07;;;12.40;99.90;;;;;;4985739;28;20668;-89
2022/11/09 09:54:23;;;;;;;4.87;4.13;;;12.50;99.90;;;;;;4976594;28;20630;-88
2022/11/09 09:56:52;;;;;;;4.50;3.73;;;12.60;99.90;;;;;;4991230;28;22193;-88
2022/11/09 09:59:26;;;;;;;4.13;3.73;;;13.10;99.90;;;;;;4977954;28;20636;-89
2022/11/09 10:01:56;;;;;;;3.67;3.30;;;13.20;99.90;;;;;;4981358;28;20655;-89
2022/11/09 10:04:36;;;;;;;3.73;2.97;;;13.30;99.90;;;;;;4978702;28;21062;-89
2022/11/09 10:07:11;;;;;;;5.87;4.40;;;13.00;99.90;;;;;;4981841;28;20629;-89
2022/11/09 10:09:56;;;;;;;3.17;2.63;;;13.50;99.90;;;;;;4978983;28;20640;-88
2022/11/09 10:12:31;;;;;;;3.63;3.10;;;13.50;99.90;;;;;;4980585;28;20652;-89
2022/11/09 10:15:11;;;;;;;4.07;2.63;;;13.60;99.90;;;;;;4980545;28;20761;-88
2022/11/09 10:17:44;;;;;;;2.93;2.40;;;13.70;99.90;;;;;;4980641;28;20621;-88
2022/11/09 10:20:28;;;;;;;3.37;2.93;;;13.80;99.90;;;;;;4977878;28;21190;-88
2022/11/09 10:23:06;;;;;;;4.70;3.57;;;13.70;99.90;;;;;;4979849;28;20674;-88
2022/11/09 10:25:38;;;;;;;3.00;2.70;;;13.90;99.90;;;;;;4979168;28;20695;-88
2022/11/09 10:28:11;;;;;;;2.47;2.27;;;14.00;99.90;;;;;;4980355;28;20635;-88
2022/11/09 10:30:40;;;;;;;3.00;2.80;;;14.10;99.90;;;;;;4980080;28;20624;-88
2022/11/09 10:33:19;;;;;;;3.10;2.17;;;14.20;99.90;;;;;;4980130;28;20656;-88
2022/11/09 10:35:52;;;;;;;3.20;2.90;;;14.40;99.90;;;;;;4979140;28;20643;-88
2022/11/09 10:38:23;;;;;;;2.67;2.17;;;14.50;99.90;;;;;;4977174;28;20632;-87
2022/11/09 10:40:53;;;;;;;3.77;3.37;;;14.50;99.90;;;;;;4975941;28;21213;-88
2022/11/09 10:43:20;;;;;;;3.20;2.20;;;14.70;99.90;;;;;;4981347;28;20991;-88
2022/11/09 10:46:03;;;;;;;4.60;1.90;;;14.90;99.90;;;;;;4978587;28;20675;-88
2022/11/09 10:48:33;;;;;;;4.53;2.00;;;15.00;99.90;;;;;;4981324;28;21040;-88
2022/11/09 10:50:59;;;;;;;4.60;2.20;;;15.20;99.90;;;;;;4977083;28;20997;-88
2022/11/09 10:53:27;;;;;;;3.50;2.10;;;15.30;99.90;;;;;;4978269;28;20660;-88
2022/11/09 10:55:56;;;;;;;1.93;1.83;;;15.50;99.90;;;;;;4980349;28;21322;-88
2022/11/09 10:58:31;;;;;;;3.50;1.90;;;15.60;99.90;;;;;;4974739;28;20608;-88
2022/11/09 11:01:02;;;;;;;2.83;1.90;;;15.70;99.90;;;;;;4981591;28;20629;-88
2022/11/09 11:03:30;;;;;;;7.33;6.53;;;15.80;99.90;;;;;;4982033;28;20661;-88
2022/11/09 11:05:58;;;;;;;3.03;2.27;;;15.80;99.90;;;;;;4979965;28;20672;-88
2022/11/09 11:08:38;;;;;;;2.97;1.73;;;15.90;99.90;;;;;;4979333;28;20632;-88
2022/11/09 11:11:18;;;;;;;2.43;1.53;;;16.00;99.90;;;;;;4978914;28;20631;-88
2022/11/09 11:13:47;;;;;;;3.63;1.73;;;16.00;99.90;;;;;;4978833;28;20643;-88
2022/11/09 11:16:27;;;;;;;2.30;2.10;;;16.00;99.90;;;;;;4977963;28;21056;-88
2022/11/09 11:18:54;;;;;;;2.43;2.23;;;16.10;99.90;;;;;;4980448;28;21193;-88
2022/11/09 11:21:23;;;;;;;1.93;1.63;;;16.10;99.90;;;;;;4979106;28;21473;-88
2022/11/09 11:24:11;;;;;;;5.00;4.60;;;16.10;99.90;;;;;;4979922;28;20629;-88
2022/11/09 11:26:41;;;;;;;6.23;5.63;;;16.10;99.90;;;;;;4980660;28;20641;-89
2022/11/09 11:29:20;;;;;;;4.90;3.93;;;16.10;99.90;;;;;;4975288;28;21063;-89
2022/11/09 11:31:49;;;;;;;3.20;3.00;;;16.10;99.90;;;;;;4980453;28;20667;-89
2022/11/09 11:34:17;;;;;;;3.90;2.93;;;16.10;99.90;;;;;;4981995;28;20712;-89
2022/11/09 11:36:56;;;;;;;5.33;2.40;;;16.10;99.90;;;;;;4978217;28;20638;-89
2022/11/09 11:39:37;;;;;;;4.80;2.80;;;16.20;99.90;;;;;;4980938;28;20628;-90
2022/11/09 11:42:17;;;;;;;4.97;3.77;;;16.20;99.90;;;;;;4977713;28;20659;-89
2022/11/09 11:44:59;;;;;;;5.67;2.00;;;16.20;99.90;;;;;;4978688;28;20694;-89
2022/11/09 11:47:33;;;;;;;1.93;1.73;;;16.20;99.90;;;;;;4982610;28;20672;-89
2022/11/09 11:50:21;;;;;;;2.80;2.27;;;16.10;99.90;;;;;;4978740;28;20627;-89
2022/11/09 11:53:00;;;;;;;2.20;1.97;;;16.00;99.90;;;;;;4977479;28;20663;-89
2022/11/09 11:55:45;;;;;;;3.80;2.80;;;16.00;99.90;;;;;;4977043;28;20620;-89
2022/11/09 11:58:29;;;;;;;3.10;2.13;;;16.00;99.90;;;;;;4978846;28;20659;-87
2022/11/09 12:01:01;;;;;;;4.07;2.57;;;15.90;99.90;;;;;;4986909;28;20666;-88
2022/11/09 12:03:42;;;;;;;2.70;2.50;;;15.90;99.90;;;;;;4981513;28;20652;-88
2022/11/09 12:06:25;;;;;;;2.90;2.70;;;15.90;99.90;;;;;;4977343;28;20999;-88
2022/11/09 12:09:05;;;;;;;2.53;2.23;;;15.80;99.90;;;;;;4981809;28;20660;-88
2022/11/09 12:11:43;;;;;;;3.00;2.80;;;15.80;99.90;;;;;;4982746;28;20659;-88
2022/11/09 12:14:19;;;;;;;2.30;2.10;;;15.80;99.90;;;;;;4980776;28;20632;-88
2022/11/09 12:16:53;;;;;;;3.80;2.90;;;15.80;99.90;;;;;;4981687;28;21417;-88
2022/11/09 12:19:49;;;;;;;2.60;2.40;;;15.80;99.90;;;;;;4983282;28;20632;-88
2022/11/09 12:22:27;;;;;;;2.67;2.47;;;15.90;99.90;;;;;;4985279;28;20624;-88
2022/11/09 12:25:00;;;;;;;2.30;2.10;;;15.90;99.90;;;;;;4979291;28;21237;-88
2022/11/09 12:27:51;;;;;;;3.07;2.80;;;15.90;99.90;;;;;;4984314;28;20656;-88
2022/11/09 12:30:21;;;;;;;5.53;3.17;;;15.90;99.90;;;;;;4986522;28;20632;-88
2022/11/09 12:32:54;;;;;;;3.77;2.97;;;15.90;99.90;;;;;;4986108;28;20718;-87
2022/11/09 12:35:29;;;;;;;3.30;3.00;;;15.90;99.90;;;;;;4986605;28;21201;-87
2022/11/09 12:38:01;;;;;;;2.90;2.60;;;16.00;99.90;;;;;;4982454;28;20722;-88
2022/11/09 12:40:32;;;;;;;3.73;2.77;;;16.00;99.90;;;;;;4983615;28;20657;-87
2022/11/09 12:43:03;;;;;;;3.77;2.80;;;16.00;99.90;;;;;;4985380;28;20619;-87
2022/11/09 12:45:34;;;;;;;3.23;2.93;;;15.90;99.90;;;;;;4983970;28;20672;-87
2022/11/09 12:48:06;;;;;;;4.77;4.37;;;15.90;99.90;;;;;;4985915;28;20645;-87
2022/11/09 12:50:36;;;;;;;4.00;3.70;;;16.00;99.90;;;;;;4978804;28;20662;-87
2022/11/09 12:53:06;;;;;;;3.77;3.40;;;16.00;99.90;;;;;;4983779;28;20723;-87
2022/11/09 12:55:42;;;;;;;4.77;4.00;;;16.10;99.90;;;;;;4989980;28;21119;-87